createdAt,value
2017-11-25T00:01:02.777Z,0
2017-11-25T00:02:11.945Z,0
2017-11-25T00:03:21.663Z,0
2017-11-25T00:04:30.592Z,0
2017-11-25T00:05:39.771Z,0
2017-11-25T00:06:48.996Z,0
2017-11-25T00:07:58.177Z,0
2017-11-25T00:09:07.084Z,0
2017-11-25T00:10:16.533Z,0
2017-11-25T00:11:25.462Z,0
2017-11-25T00:12:34.090Z,0
2017-11-25T00:13:43.012Z,0
2017-11-25T00:14:52.720Z,0
2017-11-25T00:16:01.349Z,0
2017-11-25T00:17:10.526Z,0
2017-11-25T00:18:19.725Z,0
2017-11-25T00:19:28.623Z,0
2017-11-25T00:20:38.081Z,0
2017-11-25T00:21:47.009Z,0
2017-11-25T00:22:56.202Z,0
2017-11-25T00:24:05.118Z,0
2017-11-25T00:25:14.313Z,0
2017-11-25T00:26:23.752Z,0
2017-11-25T00:27:33.191Z,0
2017-11-25T00:28:42.625Z,0
2017-11-25T00:29:52.093Z,0
2017-11-25T00:31:01.508Z,0
2017-11-25T00:32:10.415Z,0
2017-11-25T00:33:19.891Z,0
2017-11-25T00:34:28.590Z,0
2017-11-25T00:35:37.528Z,0
2017-11-25T00:36:46.431Z,0
2017-11-25T00:37:55.639Z,0
2017-11-25T00:39:04.576Z,0
2017-11-25T00:40:13.514Z,0
2017-11-25T00:41:22.423Z,0
2017-11-25T00:42:31.586Z,0
2017-11-25T00:43:40.491Z,0
2017-11-25T00:44:49.402Z,0
2017-11-25T00:45:58.321Z,0
2017-11-25T00:47:08.059Z,0
2017-11-25T00:48:17.528Z,0
2017-11-25T00:49:26.693Z,0
2017-11-25T00:50:35.352Z,0
2017-11-25T00:51:44.785Z,0
2017-11-25T00:52:54.239Z,0
2017-11-25T00:54:03.423Z,0
2017-11-25T00:55:12.327Z,0
2017-11-25T00:56:21.749Z,0
2017-11-25T00:57:30.699Z,0
2017-11-25T00:58:40.165Z,0
2017-11-25T00:59:49.641Z,0
2017-11-25T01:00:58.819Z,0
2017-11-25T01:02:08.280Z,0
2017-11-25T01:03:17.742Z,0
2017-11-25T01:04:27.183Z,0
2017-11-25T01:05:36.120Z,0
2017-11-25T01:06:45.036Z,0
2017-11-25T01:07:54.218Z,0
2017-11-25T01:09:03.405Z,0
2017-11-25T01:10:12.354Z,0
2017-11-25T01:11:21.526Z,0
2017-11-25T01:12:30.690Z,0
2017-11-25T01:13:39.913Z,0
2017-11-25T01:14:49.093Z,0
2017-11-25T01:15:58.294Z,0
2017-11-25T01:17:08.018Z,0
2017-11-25T01:18:16.919Z,0
2017-11-25T01:19:26.367Z,0
2017-11-25T01:20:35.553Z,0
2017-11-25T01:21:45.246Z,0
2017-11-25T01:22:54.457Z,0
2017-11-25T01:24:03.898Z,0
2017-11-25T01:25:12.559Z,0
2017-11-25T01:26:21.499Z,0
2017-11-25T01:27:31.203Z,0
2017-11-25T01:28:40.412Z,0
2017-11-25T01:29:49.574Z,0
2017-11-25T01:30:58.741Z,0
2017-11-25T01:32:07.406Z,0
2017-11-25T01:33:16.105Z,0
2017-11-25T01:34:25.267Z,0
2017-11-25T01:35:34.449Z,0
2017-11-25T01:36:43.614Z,0
2017-11-25T01:37:52.522Z,0
2017-11-25T01:39:02.225Z,0
2017-11-25T01:40:11.124Z,0
2017-11-25T01:41:19.782Z,0
2017-11-25T01:42:28.699Z,0
2017-11-25T01:43:37.340Z,0
2017-11-25T01:44:46.542Z,0
2017-11-25T01:45:55.174Z,0
2017-11-25T01:47:04.863Z,0
2017-11-25T01:48:13.767Z,0
2017-11-25T01:49:23.459Z,0
2017-11-25T01:50:32.627Z,0
2017-11-25T01:51:42.334Z,0
2017-11-25T01:52:51.233Z,0
2017-11-25T01:54:00.669Z,0
2017-11-25T01:55:09.572Z,0
2017-11-25T01:56:19.032Z,0
2017-11-25T01:57:28.484Z,0
2017-11-25T01:58:37.695Z,0
2017-11-25T01:59:46.849Z,0
2017-11-25T02:00:56.306Z,0
2017-11-25T02:02:05.254Z,0
2017-11-25T02:03:14.451Z,0
2017-11-25T02:04:23.674Z,0
2017-11-25T02:05:32.629Z,0
2017-11-25T02:06:42.075Z,0
2017-11-25T02:07:50.993Z,0
2017-11-25T02:08:59.916Z,0
2017-11-25T02:10:08.852Z,0
2017-11-25T02:11:18.567Z,0
2017-11-25T02:12:27.744Z,0
2017-11-25T02:13:36.971Z,0
2017-11-25T02:14:46.151Z,0
2017-11-25T02:15:54.785Z,0
2017-11-25T02:17:03.954Z,0
2017-11-25T02:18:12.596Z,0
2017-11-25T02:19:22.034Z,0
2017-11-25T02:20:31.195Z,0
2017-11-25T02:21:40.626Z,0
2017-11-25T02:22:50.321Z,0
2017-11-25T02:23:59.245Z,0
2017-11-25T02:25:08.171Z,0
2017-11-25T02:26:17.850Z,0
2017-11-25T02:27:27.021Z,0
2017-11-25T02:28:35.659Z,0
2017-11-25T02:29:45.112Z,0
2017-11-25T02:30:54.309Z,0
2017-11-25T02:32:04.041Z,0
2017-11-25T02:33:13.236Z,0
2017-11-25T02:34:22.675Z,0
2017-11-25T02:35:31.847Z,0
2017-11-25T02:36:41.021Z,0
2017-11-25T02:37:49.944Z,0
2017-11-25T02:38:59.142Z,0
2017-11-25T02:40:08.329Z,0
2017-11-25T02:41:17.255Z,0
2017-11-25T02:42:26.436Z,0
2017-11-25T02:43:35.120Z,0
2017-11-25T02:44:44.400Z,0
2017-11-25T02:45:53.584Z,0
2017-11-25T02:47:02.236Z,0
2017-11-25T02:48:11.738Z,0
2017-11-25T02:49:20.388Z,0
2017-11-25T02:50:29.470Z,0
2017-11-25T02:51:38.430Z,0
2017-11-25T02:52:47.955Z,0
2017-11-25T02:53:57.712Z,0
2017-11-25T02:55:07.490Z,0
2017-11-25T02:56:16.426Z,0
2017-11-25T02:57:25.459Z,0
2017-11-25T02:58:34.655Z,0
2017-11-25T02:59:44.418Z,0
2017-11-25T03:00:53.597Z,0
2017-11-25T03:02:02.795Z,0
2017-11-25T03:03:11.809Z,0
2017-11-25T03:04:20.461Z,0
2017-11-25T03:05:29.098Z,0
2017-11-25T03:06:38.278Z,0
2017-11-25T03:07:46.913Z,0
2017-11-25T03:08:56.090Z,0
2017-11-25T03:10:05.970Z,0
2017-11-25T03:11:14.894Z,0
2017-11-25T03:12:23.560Z,0
2017-11-25T03:13:32.855Z,0
2017-11-25T03:14:42.012Z,0
2017-11-25T03:15:51.434Z,0
2017-11-25T03:17:00.950Z,0
2017-11-25T03:18:10.052Z,0
2017-11-25T03:19:18.696Z,0
2017-11-25T03:20:28.019Z,0
2017-11-25T03:21:37.980Z,0
2017-11-25T03:22:47.426Z,0
2017-11-25T03:23:56.590Z,0
2017-11-25T03:25:06.402Z,0
2017-11-25T03:26:15.833Z,0
2017-11-25T03:27:25.029Z,0
2017-11-25T03:28:34.826Z,0
2017-11-25T03:29:44.461Z,0
2017-11-25T03:30:53.682Z,0
2017-11-25T03:32:03.134Z,0
2017-11-25T03:33:13.161Z,0
2017-11-25T03:34:21.812Z,0
2017-11-25T03:35:30.703Z,0
2017-11-25T03:36:40.197Z,0
2017-11-25T03:37:49.247Z,0
2017-11-25T03:38:58.046Z,0
2017-11-25T03:40:07.311Z,0
2017-11-25T03:41:16.528Z,0
2017-11-25T03:42:25.984Z,0
2017-11-25T03:43:34.647Z,0
2017-11-25T03:44:43.336Z,0
2017-11-25T03:45:52.832Z,0
2017-11-25T03:47:01.764Z,0
2017-11-25T03:48:11.139Z,0
2017-11-25T03:49:20.347Z,0
2017-11-25T03:50:29.309Z,0
2017-11-25T03:51:38.573Z,0
2017-11-25T03:52:47.909Z,0
2017-11-25T03:53:57.529Z,0
2017-11-25T03:55:06.837Z,0
2017-11-25T03:56:16.156Z,0
2017-11-25T03:57:25.071Z,0
2017-11-25T03:58:34.589Z,0
2017-11-25T03:59:44.479Z,0
2017-11-25T04:00:53.952Z,0
2017-11-25T04:02:02.868Z,0
2017-11-25T04:03:12.449Z,0
2017-11-25T04:04:22.233Z,0
2017-11-25T04:05:31.935Z,0
2017-11-25T04:06:41.154Z,0
2017-11-25T04:07:50.874Z,0
2017-11-25T04:08:59.548Z,0
2017-11-25T04:10:08.548Z,0
2017-11-25T04:11:17.697Z,0
2017-11-25T04:12:27.236Z,0
2017-11-25T04:13:36.194Z,0
2017-11-25T04:14:45.360Z,0
2017-11-25T04:15:54.526Z,0
2017-11-25T04:17:03.850Z,0
2017-11-25T04:18:13.189Z,0
2017-11-25T04:19:22.396Z,0
2017-11-25T04:20:31.659Z,0
2017-11-25T04:21:40.861Z,0
2017-11-25T04:22:49.836Z,0
2017-11-25T04:23:58.817Z,0
2017-11-25T04:25:08.200Z,0
2017-11-25T04:26:17.976Z,0
2017-11-25T04:27:26.894Z,0
2017-11-25T04:28:36.155Z,0
2017-11-25T04:29:45.506Z,0
2017-11-25T04:30:54.544Z,0
2017-11-25T04:32:03.732Z,0
2017-11-25T04:33:12.652Z,0
2017-11-25T04:34:21.305Z,0
2017-11-25T04:35:30.893Z,0
2017-11-25T04:36:40.416Z,0
2017-11-25T04:37:49.366Z,0
2017-11-25T04:38:58.541Z,0
2017-11-25T04:40:07.721Z,0
2017-11-25T04:41:16.919Z,0
2017-11-25T04:42:26.617Z,0
2017-11-25T04:43:35.822Z,0
2017-11-25T04:44:45.244Z,0
2017-11-25T04:45:54.953Z,0
2017-11-25T04:47:04.140Z,0
2017-11-25T04:48:13.312Z,0
2017-11-25T04:49:22.742Z,0
2017-11-25T04:50:31.392Z,0
2017-11-25T04:51:40.577Z,0
2017-11-25T04:52:49.500Z,0
2017-11-25T04:53:58.400Z,0
2017-11-25T04:55:07.579Z,0
2017-11-25T04:56:16.223Z,0
2017-11-25T04:57:24.868Z,0
2017-11-25T04:58:33.800Z,0
2017-11-25T04:59:42.971Z,0
2017-11-25T05:00:51.881Z,0
2017-11-25T05:02:01.051Z,0
2017-11-25T05:03:10.480Z,0
2017-11-25T05:04:19.947Z,0
2017-11-25T05:05:28.866Z,0
2017-11-25T05:06:38.292Z,0
2017-11-25T05:07:47.492Z,0
2017-11-25T05:08:56.921Z,0
2017-11-25T05:10:05.594Z,0
2017-11-25T05:11:14.754Z,0
2017-11-25T05:12:23.938Z,0
2017-11-25T05:13:32.846Z,0
2017-11-25T05:14:42.055Z,0
2017-11-25T05:15:51.286Z,0
2017-11-25T05:17:00.743Z,0
2017-11-25T05:18:09.941Z,0
2017-11-25T05:19:19.135Z,0
2017-11-25T05:20:28.562Z,0
2017-11-25T05:21:37.575Z,0
2017-11-25T05:22:46.484Z,0
2017-11-25T05:23:56.231Z,0
2017-11-25T05:25:05.422Z,0
2017-11-25T05:26:14.936Z,0
2017-11-25T05:27:23.858Z,0
2017-11-25T05:28:32.766Z,0
2017-11-25T05:29:41.678Z,0
2017-11-25T05:30:50.587Z,0
2017-11-25T05:31:59.515Z,0
2017-11-25T05:33:08.693Z,0
2017-11-25T05:34:17.626Z,0
2017-11-25T05:35:26.533Z,0
2017-11-25T05:36:35.703Z,0
2017-11-25T05:37:44.638Z,0
2017-11-25T05:38:54.431Z,0
2017-11-25T05:40:03.611Z,0
2017-11-25T05:41:12.278Z,0
2017-11-25T05:42:21.465Z,0
2017-11-25T05:43:30.661Z,0
2017-11-25T05:44:40.112Z,0
2017-11-25T05:45:49.041Z,0
2017-11-25T05:46:58.206Z,0
2017-11-25T05:48:07.110Z,0
2017-11-25T05:49:16.837Z,0
2017-11-25T05:50:25.737Z,0
2017-11-25T05:51:34.903Z,0
2017-11-25T05:52:43.820Z,0
2017-11-25T05:53:52.992Z,0
2017-11-25T05:55:01.630Z,0
2017-11-25T05:56:10.637Z,0
2017-11-25T05:57:20.078Z,0
2017-11-25T05:58:29.264Z,0
2017-11-25T05:59:38.174Z,0
2017-11-25T06:00:47.120Z,0
2017-11-25T06:01:56.652Z,0
2017-11-25T06:03:05.898Z,0
2017-11-25T06:04:14.798Z,0
2017-11-25T06:05:23.705Z,0
2017-11-25T06:06:33.149Z,0
2017-11-25T06:07:41.805Z,0
2017-11-25T06:08:50.976Z,0
2017-11-25T06:10:00.179Z,0
2017-11-25T06:11:09.347Z,0
2017-11-25T06:12:18.506Z,0
2017-11-25T06:13:27.407Z,0
2017-11-25T06:14:36.055Z,0
2017-11-25T06:15:45.544Z,0
2017-11-25T06:16:55.229Z,0
2017-11-25T06:18:04.709Z,0
2017-11-25T06:19:13.697Z,0
2017-11-25T06:20:22.671Z,0
2017-11-25T06:21:31.646Z,0
2017-11-25T06:22:40.811Z,0
2017-11-25T06:23:49.768Z,0
2017-11-25T06:24:58.693Z,0
2017-11-25T06:26:07.604Z,0
2017-11-25T06:27:16.840Z,0
2017-11-25T06:28:26.063Z,0
2017-11-25T06:29:34.967Z,0
2017-11-25T06:30:44.446Z,0
2017-11-25T06:31:53.346Z,0
2017-11-25T06:33:03.037Z,0
2017-11-25T06:34:11.969Z,0
2017-11-25T06:35:21.157Z,0
2017-11-25T06:36:30.380Z,0
2017-11-25T06:37:39.289Z,0
2017-11-25T06:38:48.745Z,0
2017-11-25T06:39:58.187Z,0
2017-11-25T06:41:07.382Z,0
2017-11-25T06:42:16.309Z,0
2017-11-25T06:43:24.948Z,0
2017-11-25T06:44:34.169Z,0
2017-11-25T06:45:43.379Z,0
2017-11-25T06:46:52.572Z,0
2017-11-25T06:48:01.773Z,0
2017-11-25T06:49:10.999Z,0
2017-11-25T06:50:19.920Z,0
2017-11-25T06:51:29.094Z,0
2017-11-25T06:52:38.531Z,0
2017-11-25T06:53:47.699Z,4
2017-11-25T06:54:57.441Z,4
2017-11-25T06:56:06.368Z,4
2017-11-25T06:57:15.324Z,4
2017-11-25T06:58:24.496Z,4
2017-11-25T06:59:33.407Z,4
2017-11-25T07:00:42.873Z,4
2017-11-25T07:01:51.588Z,8
2017-11-25T07:03:00.832Z,8
2017-11-25T07:04:09.745Z,8
2017-11-25T07:05:18.678Z,4
2017-11-25T07:06:27.364Z,4
2017-11-25T07:07:36.859Z,4
2017-11-25T07:08:45.761Z,4
2017-11-25T07:09:54.700Z,4
2017-11-25T07:11:04.181Z,8
2017-11-25T07:12:13.097Z,8
2017-11-25T07:13:22.025Z,8
2017-11-25T07:14:30.682Z,12
2017-11-25T07:15:40.158Z,8
2017-11-25T07:16:49.621Z,12
2017-11-25T07:17:58.521Z,16
2017-11-25T07:19:07.727Z,16
2017-11-25T07:20:16.940Z,16
2017-11-25T07:21:25.857Z,20
2017-11-25T07:22:35.067Z,20
2017-11-25T07:23:44.286Z,20
2017-11-25T07:24:53.221Z,24
2017-11-25T07:26:02.437Z,24
2017-11-25T07:27:11.366Z,24
2017-11-25T07:28:20.307Z,24
2017-11-25T07:29:29.231Z,28
2017-11-25T07:30:38.673Z,32
2017-11-25T07:31:47.583Z,36
2017-11-25T07:32:56.778Z,40
2017-11-25T07:34:06.261Z,36
2017-11-25T07:35:15.163Z,36
2017-11-25T07:36:24.596Z,36
2017-11-25T07:37:33.510Z,36
2017-11-25T07:38:42.723Z,40
2017-11-25T07:39:51.914Z,44
2017-11-25T07:41:01.086Z,44
2017-11-25T07:42:10.029Z,44
2017-11-25T07:43:18.669Z,44
2017-11-25T07:44:28.141Z,40
2017-11-25T07:45:36.807Z,40
2017-11-25T07:46:46.015Z,40
2017-11-25T07:47:55.210Z,40
2017-11-25T07:49:04.429Z,40
2017-11-25T07:50:13.896Z,44
2017-11-25T07:51:23.085Z,44
2017-11-25T07:52:32.313Z,48
2017-11-25T07:53:41.501Z,52
2017-11-25T07:54:51.197Z,56
2017-11-25T07:56:00.152Z,60
2017-11-25T07:57:08.832Z,56
2017-11-25T07:58:18.762Z,60
2017-11-25T07:59:27.992Z,68
2017-11-25T08:00:37.190Z,68
2017-11-25T08:01:46.819Z,72
2017-11-25T08:02:56.017Z,72
2017-11-25T08:04:05.598Z,80
2017-11-25T08:05:15.675Z,80
2017-11-25T08:06:25.432Z,76
2017-11-25T08:07:34.659Z,76
2017-11-25T08:08:43.308Z,72
2017-11-25T08:09:52.502Z,72
2017-11-25T08:11:02.242Z,72
2017-11-25T08:12:11.432Z,72
2017-11-25T08:13:20.347Z,72
2017-11-25T08:14:30.000Z,76
2017-11-25T08:15:39.175Z,76
2017-11-25T08:16:48.362Z,80
2017-11-25T08:17:57.545Z,84
2017-11-25T08:19:06.847Z,92
2017-11-25T08:20:15.832Z,108
2017-11-25T08:21:24.835Z,136
2017-11-25T08:22:35.400Z,164
2017-11-25T08:23:45.372Z,184
2017-11-25T08:24:55.104Z,192
2017-11-25T08:26:04.614Z,244
2017-11-25T08:27:13.808Z,284
2017-11-25T08:28:23.022Z,300
2017-11-25T08:29:31.967Z,316
2017-11-25T08:30:41.176Z,324
2017-11-25T08:31:50.093Z,340
2017-11-25T08:32:59.316Z,356
2017-11-25T08:34:08.834Z,368
2017-11-25T08:35:18.040Z,376
2017-11-25T08:36:27.524Z,392
2017-11-25T08:37:36.440Z,408
2017-11-25T08:38:45.961Z,428
2017-11-25T08:39:55.190Z,444
2017-11-25T08:41:04.380Z,464
2017-11-25T08:42:13.025Z,484
2017-11-25T08:43:21.932Z,488
2017-11-25T08:44:31.663Z,488
2017-11-25T08:45:40.838Z,488
2017-11-25T08:46:50.292Z,484
2017-11-25T08:47:58.956Z,484
2017-11-25T08:49:07.921Z,464
2017-11-25T08:50:17.182Z,420
2017-11-25T08:51:26.473Z,392
2017-11-25T08:52:35.409Z,404
2017-11-25T08:53:44.096Z,412
2017-11-25T08:54:53.288Z,400
2017-11-25T08:56:02.213Z,380
2017-11-25T08:57:11.662Z,408
2017-11-25T08:58:20.609Z,452
2017-11-25T08:59:29.269Z,456
2017-11-25T09:00:38.719Z,436
2017-11-25T09:01:47.888Z,468
2017-11-25T09:02:56.853Z,540
2017-11-25T09:04:06.058Z,576
2017-11-25T09:05:15.507Z,556
2017-11-25T09:06:24.954Z,536
2017-11-25T09:07:34.686Z,588
2017-11-25T09:08:43.607Z,632
2017-11-25T09:09:52.532Z,608
2017-11-25T09:11:01.468Z,580
2017-11-25T09:12:10.488Z,580
2017-11-25T09:13:19.950Z,580
2017-11-25T09:14:29.129Z,548
2017-11-25T09:15:38.055Z,512
2017-11-25T09:16:47.773Z,516
2017-11-25T09:17:56.705Z,544
2017-11-25T09:19:05.619Z,556
2017-11-25T09:20:14.809Z,536
2017-11-25T09:21:24.006Z,524
2017-11-25T09:22:32.919Z,520
2017-11-25T09:23:42.109Z,528
2017-11-25T09:24:51.289Z,540
2017-11-25T09:26:00.481Z,544
2017-11-25T09:27:09.975Z,536
2017-11-25T09:28:19.230Z,524
2017-11-25T09:29:28.685Z,524
2017-11-25T09:30:38.409Z,524
2017-11-25T09:31:47.074Z,516
2017-11-25T09:32:55.998Z,512
2017-11-25T09:34:04.923Z,496
2017-11-25T09:35:14.116Z,472
2017-11-25T09:36:23.304Z,432
2017-11-25T09:37:32.755Z,388
2017-11-25T09:38:41.411Z,348
2017-11-25T09:39:50.322Z,320
2017-11-25T09:40:59.261Z,308
2017-11-25T09:42:08.726Z,308
2017-11-25T09:43:17.371Z,328
2017-11-25T09:44:26.839Z,360
2017-11-25T09:45:36.560Z,388
2017-11-25T09:46:45.746Z,404
2017-11-25T09:47:54.406Z,404
2017-11-25T09:49:03.069Z,380
2017-11-25T09:50:11.737Z,336
2017-11-25T09:51:21.207Z,304
2017-11-25T09:52:29.861Z,272
2017-11-25T09:53:38.514Z,248
2017-11-25T09:54:47.991Z,236
2017-11-25T09:55:57.442Z,236
2017-11-25T09:57:06.644Z,244
2017-11-25T09:58:15.574Z,280
2017-11-25T09:59:24.242Z,300
2017-11-25T10:00:33.427Z,304
2017-11-25T10:01:42.352Z,312
2017-11-25T10:02:51.538Z,316
2017-11-25T10:04:01.163Z,328
2017-11-25T10:05:10.384Z,332
2017-11-25T10:06:19.323Z,332
2017-11-25T10:07:28.525Z,324
2017-11-25T10:08:37.480Z,312
2017-11-25T10:09:46.146Z,312
2017-11-25T10:10:55.852Z,296
2017-11-25T10:12:04.786Z,300
2017-11-25T10:13:14.245Z,300
2017-11-25T10:14:23.443Z,300
2017-11-25T10:15:32.895Z,336
2017-11-25T10:16:42.364Z,328
2017-11-25T10:17:51.572Z,308
2017-11-25T10:19:01.007Z,304
2017-11-25T10:20:09.912Z,308
2017-11-25T10:21:19.637Z,300
2017-11-25T10:22:28.302Z,312
2017-11-25T10:23:37.746Z,312
2017-11-25T10:24:47.214Z,304
2017-11-25T10:25:56.687Z,300
2017-11-25T10:27:06.389Z,320
2017-11-25T10:28:15.302Z,344
2017-11-25T10:29:24.236Z,368
2017-11-25T10:30:33.412Z,392
2017-11-25T10:31:42.084Z,444
2017-11-25T10:32:50.985Z,500
2017-11-25T10:33:59.907Z,556
2017-11-25T10:35:09.362Z,592
2017-11-25T10:36:18.015Z,600
2017-11-25T10:37:27.201Z,620
2017-11-25T10:38:36.382Z,680
2017-11-25T10:39:45.294Z,712
2017-11-25T10:40:54.474Z,672
2017-11-25T10:42:03.398Z,636
2017-11-25T10:43:13.108Z,660
2017-11-25T10:44:22.290Z,792
2017-11-25T10:45:31.482Z,852
2017-11-25T10:46:40.406Z,864
2017-11-25T10:47:49.060Z,936
2017-11-25T10:48:57.998Z,1000
2017-11-25T10:50:06.932Z,1048
2017-11-25T10:51:16.377Z,1148
2017-11-25T10:52:25.304Z,1192
2017-11-25T10:53:34.221Z,1208
2017-11-25T10:54:43.144Z,1252
2017-11-25T10:55:52.578Z,1284
2017-11-25T10:57:01.817Z,1288
2017-11-25T10:58:11.003Z,1268
2017-11-25T10:59:20.456Z,1224
2017-11-25T11:00:29.696Z,1192
2017-11-25T11:01:38.896Z,1176
2017-11-25T11:02:47.555Z,1160
2017-11-25T11:03:56.477Z,1176
2017-11-25T11:05:05.183Z,1200
2017-11-25T11:06:14.373Z,1188
2017-11-25T11:07:23.547Z,1128
2017-11-25T11:08:32.504Z,1044
2017-11-25T11:09:41.157Z,964
2017-11-25T11:10:50.608Z,944
2017-11-25T11:11:59.549Z,960
2017-11-25T11:13:09.278Z,976
2017-11-25T11:14:18.200Z,912
2017-11-25T11:15:27.634Z,888
2017-11-25T11:16:36.575Z,848
2017-11-25T11:17:45.476Z,792
2017-11-25T11:18:54.124Z,824
2017-11-25T11:20:03.311Z,900
2017-11-25T11:21:12.785Z,928
2017-11-25T11:22:21.696Z,972
2017-11-25T11:23:30.608Z,1032
2017-11-25T11:24:39.534Z,1064
2017-11-25T11:25:48.183Z,1080
2017-11-25T11:26:57.653Z,1072
2017-11-25T11:28:06.603Z,1040
2017-11-25T11:29:16.313Z,988
2017-11-25T11:30:25.491Z,916
2017-11-25T11:31:34.137Z,836
2017-11-25T11:32:43.047Z,784
2017-11-25T11:33:51.700Z,780
2017-11-25T11:35:01.149Z,796
2017-11-25T11:36:10.079Z,796
2017-11-25T11:37:19.253Z,784
2017-11-25T11:38:28.455Z,768
2017-11-25T11:39:37.140Z,756
2017-11-25T11:40:46.608Z,740
2017-11-25T11:41:55.531Z,712
2017-11-25T11:43:04.195Z,688
2017-11-25T11:44:12.904Z,660
2017-11-25T11:45:22.392Z,632
2017-11-25T11:46:32.150Z,608
2017-11-25T11:47:41.579Z,580
2017-11-25T11:48:50.223Z,556
2017-11-25T11:49:59.730Z,548
2017-11-25T11:51:09.185Z,560
2017-11-25T11:52:18.363Z,564
2017-11-25T11:53:27.267Z,572
2017-11-25T11:54:36.175Z,588
2017-11-25T11:55:45.357Z,604
2017-11-25T11:56:54.813Z,624
2017-11-25T11:58:04.783Z,644
2017-11-25T11:59:13.995Z,672
2017-11-25T12:00:22.904Z,688
2017-11-25T12:01:32.085Z,708
2017-11-25T12:02:41.577Z,724
2017-11-25T12:03:50.505Z,744
2017-11-25T12:04:59.446Z,764
2017-11-25T12:06:08.631Z,784
2017-11-25T12:07:17.592Z,800
2017-11-25T12:08:27.319Z,804
2017-11-25T12:09:36.257Z,804
2017-11-25T12:10:45.684Z,816
2017-11-25T12:11:54.345Z,840
2017-11-25T12:13:03.528Z,868
2017-11-25T12:14:12.475Z,900
2017-11-25T12:15:22.187Z,928
2017-11-25T12:16:31.088Z,948
2017-11-25T12:17:40.285Z,960
2017-11-25T12:18:49.205Z,964
2017-11-25T12:19:58.696Z,976
2017-11-25T12:21:07.614Z,1012
2017-11-25T12:22:17.060Z,1056
2017-11-25T12:23:25.712Z,1108
2017-11-25T12:24:34.617Z,1152
2017-11-25T12:25:43.784Z,1176
2017-11-25T12:26:53.232Z,1168
2017-11-25T12:28:02.495Z,1140
2017-11-25T12:29:11.698Z,1096
2017-11-25T12:30:20.372Z,1056
2017-11-25T12:31:29.556Z,1016
2017-11-25T12:32:38.223Z,976
2017-11-25T12:33:47.435Z,944
2017-11-25T12:34:56.398Z,928
2017-11-25T12:36:05.337Z,944
2017-11-25T12:37:15.074Z,972
2017-11-25T12:38:23.982Z,1016
2017-11-25T12:39:33.183Z,1044
2017-11-25T12:40:42.902Z,1052
2017-11-25T12:41:51.821Z,1044
2017-11-25T12:43:00.479Z,1032
2017-11-25T12:44:09.683Z,1040
2017-11-25T12:45:18.881Z,1060
2017-11-25T12:46:27.789Z,1092
2017-11-25T12:47:36.719Z,1144
2017-11-25T12:48:45.901Z,1188
2017-11-25T12:49:55.087Z,1212
2017-11-25T12:51:03.749Z,1208
2017-11-25T12:52:12.685Z,1176
2017-11-25T12:53:21.330Z,1136
2017-11-25T12:54:29.980Z,1068
2017-11-25T12:55:39.555Z,980
2017-11-25T12:56:48.937Z,864
2017-11-25T12:57:58.086Z,768
2017-11-25T12:59:07.269Z,724
2017-11-25T13:00:16.976Z,700
2017-11-25T13:01:26.177Z,704
2017-11-25T13:02:35.100Z,712
2017-11-25T13:03:44.276Z,724
2017-11-25T13:04:53.479Z,728
2017-11-25T13:06:02.680Z,728
2017-11-25T13:07:11.609Z,728
2017-11-25T13:08:20.532Z,736
2017-11-25T13:09:29.469Z,744
2017-11-25T13:10:38.668Z,760
2017-11-25T13:11:47.877Z,792
2017-11-25T13:12:57.614Z,828
2017-11-25T13:14:06.612Z,852
2017-11-25T13:15:16.075Z,864
2017-11-25T13:16:25.264Z,848
2017-11-25T13:17:34.216Z,800
2017-11-25T13:18:43.140Z,740
2017-11-25T13:19:51.802Z,764
2017-11-25T13:21:01.830Z,784
2017-11-25T13:22:11.022Z,768
2017-11-25T13:23:20.214Z,744
2017-11-25T13:24:29.450Z,708
2017-11-25T13:25:38.905Z,660
2017-11-25T13:26:48.088Z,648
2017-11-25T13:27:57.033Z,612
2017-11-25T13:29:06.223Z,576
2017-11-25T13:30:15.406Z,552
2017-11-25T13:31:25.137Z,512
2017-11-25T13:32:34.038Z,444
2017-11-25T13:33:43.528Z,404
2017-11-25T13:34:52.781Z,412
2017-11-25T13:36:01.997Z,416
2017-11-25T13:37:11.204Z,400
2017-11-25T13:38:20.712Z,376
2017-11-25T13:39:29.702Z,380
2017-11-25T13:40:38.617Z,416
2017-11-25T13:41:47.533Z,440
2017-11-25T13:42:56.758Z,460
2017-11-25T13:44:05.948Z,472
2017-11-25T13:45:14.652Z,504
2017-11-25T13:46:23.551Z,512
2017-11-25T13:47:32.475Z,488
2017-11-25T13:48:41.371Z,456
2017-11-25T13:49:50.553Z,444
2017-11-25T13:50:59.468Z,424
2017-11-25T13:52:09.190Z,420
2017-11-25T13:53:18.124Z,408
2017-11-25T13:54:27.033Z,444
2017-11-25T13:55:36.481Z,480
2017-11-25T13:56:45.658Z,444
2017-11-25T13:57:54.580Z,492
2017-11-25T13:59:03.730Z,556
2017-11-25T14:00:12.639Z,592
2017-11-25T14:01:21.874Z,524
2017-11-25T14:02:30.776Z,448
2017-11-25T14:03:40.222Z,472
2017-11-25T14:04:49.120Z,484
2017-11-25T14:05:58.622Z,456
2017-11-25T14:07:08.090Z,392
2017-11-25T14:08:16.740Z,380
2017-11-25T14:09:25.907Z,392
2017-11-25T14:10:34.858Z,356
2017-11-25T14:11:44.091Z,412
2017-11-25T14:12:53.524Z,408
2017-11-25T14:14:02.701Z,352
2017-11-25T14:15:11.651Z,400
2017-11-25T14:16:20.890Z,428
2017-11-25T14:17:30.107Z,444
2017-11-25T14:18:39.281Z,448
2017-11-25T14:19:48.218Z,456
2017-11-25T14:20:57.391Z,444
2017-11-25T14:22:06.293Z,440
2017-11-25T14:23:15.777Z,452
2017-11-25T14:24:24.418Z,452
2017-11-25T14:25:33.346Z,440
2017-11-25T14:26:42.781Z,424
2017-11-25T14:27:51.692Z,376
2017-11-25T14:29:00.649Z,352
2017-11-25T14:30:10.342Z,360
2017-11-25T14:31:19.776Z,352
2017-11-25T14:32:28.759Z,356
2017-11-25T14:33:38.213Z,344
2017-11-25T14:34:47.130Z,332
2017-11-25T14:35:56.058Z,328
2017-11-25T14:37:05.781Z,316
2017-11-25T14:38:14.992Z,304
2017-11-25T14:39:23.651Z,296
2017-11-25T14:40:32.812Z,284
2017-11-25T14:41:41.993Z,276
2017-11-25T14:42:51.186Z,272
2017-11-25T14:44:00.362Z,260
2017-11-25T14:45:09.827Z,252
2017-11-25T14:46:19.014Z,240
2017-11-25T14:47:28.180Z,232
2017-11-25T14:48:36.835Z,232
2017-11-25T14:49:45.774Z,228
2017-11-25T14:50:54.717Z,228
2017-11-25T14:52:03.643Z,224
2017-11-25T14:53:12.564Z,216
2017-11-25T14:54:22.029Z,208
2017-11-25T14:55:31.732Z,204
2017-11-25T14:56:40.370Z,200
2017-11-25T14:57:49.280Z,204
2017-11-25T14:58:58.186Z,204
2017-11-25T15:00:07.906Z,204
2017-11-25T15:01:17.099Z,204
2017-11-25T15:02:26.027Z,204
2017-11-25T15:03:36.111Z,196
2017-11-25T15:04:45.321Z,184
2017-11-25T15:05:54.523Z,172
2017-11-25T15:07:03.693Z,160
2017-11-25T15:08:12.889Z,144
2017-11-25T15:09:22.073Z,136
2017-11-25T15:10:31.257Z,124
2017-11-25T15:11:40.453Z,120
2017-11-25T15:12:49.393Z,112
2017-11-25T15:13:58.591Z,104
2017-11-25T15:15:07.783Z,100
2017-11-25T15:16:16.962Z,92
2017-11-25T15:17:26.171Z,92
2017-11-25T15:18:35.357Z,88
2017-11-25T15:19:44.339Z,80
2017-11-25T15:20:53.274Z,76
2017-11-25T15:22:02.474Z,72
2017-11-25T15:23:11.937Z,64
2017-11-25T15:24:21.397Z,60
2017-11-25T15:25:30.580Z,56
2017-11-25T15:26:39.729Z,52
2017-11-25T15:27:48.653Z,44
2017-11-25T15:28:57.569Z,44
2017-11-25T15:30:06.486Z,36
2017-11-25T15:31:15.651Z,36
2017-11-25T15:32:25.340Z,32
2017-11-25T15:33:33.989Z,32
2017-11-25T15:34:43.229Z,24
2017-11-25T15:35:52.727Z,24
2017-11-25T15:37:01.387Z,24
2017-11-25T15:38:10.411Z,20
2017-11-25T15:39:19.859Z,16
2017-11-25T15:40:28.802Z,16
2017-11-25T15:41:38.338Z,16
2017-11-25T15:42:47.033Z,12
2017-11-25T15:43:56.351Z,12
2017-11-25T15:45:04.995Z,8
2017-11-25T15:46:14.189Z,8
2017-11-25T15:47:23.128Z,4
2017-11-25T15:48:32.345Z,8
2017-11-25T15:49:41.308Z,4
2017-11-25T15:50:50.816Z,4
2017-11-25T15:52:00.002Z,4
2017-11-25T15:53:09.181Z,4
2017-11-25T15:54:18.358Z,0
2017-11-25T15:55:26.999Z,4
2017-11-25T15:56:36.462Z,4
2017-11-25T15:57:46.259Z,0
2017-11-25T15:58:55.484Z,0
2017-11-25T16:00:04.692Z,0
2017-11-25T16:01:13.607Z,0
2017-11-25T16:02:23.062Z,0
2017-11-25T16:03:32.025Z,0
2017-11-25T16:04:40.731Z,0
2017-11-25T16:05:50.200Z,4
2017-11-25T16:06:59.421Z,4
2017-11-25T16:08:08.363Z,4
2017-11-25T16:09:17.541Z,4
2017-11-25T16:10:27.015Z,4
2017-11-25T16:11:36.720Z,4
2017-11-25T16:12:45.904Z,4
2017-11-25T16:13:54.812Z,4
2017-11-25T16:15:03.804Z,4
2017-11-25T16:16:12.984Z,4
2017-11-25T16:17:22.166Z,4
2017-11-25T16:18:31.104Z,4
2017-11-25T16:19:40.815Z,4
2017-11-25T16:20:49.991Z,4
2017-11-25T16:21:59.167Z,4
2017-11-25T16:23:08.190Z,4
2017-11-25T16:24:17.647Z,4
2017-11-25T16:25:27.125Z,4
2017-11-25T16:26:36.389Z,4